createdAt,value
2019-05-01T00:00:41.533Z,95.51
2019-05-01T00:01:41.526Z,95.32
2019-05-01T00:02:41.518Z,95.51
2019-05-01T00:03:41.510Z,95.41
2019-05-01T00:04:41.501Z,95.22
2019-05-01T00:05:41.493Z,95.32
2019-05-01T00:06:41.485Z,95.41
2019-05-01T00:07:41.483Z,95.51
2019-05-01T00:08:41.474Z,96.08
2019-05-01T00:09:41.465Z,95.22
2019-05-01T00:10:41.459Z,95.32
2019-05-01T00:11:41.454Z,95.51
2019-05-01T00:12:41.445Z,95.22
2019-05-01T00:13:41.435Z,95.32
2019-05-01T00:14:41.428Z,95.32
2019-05-01T00:15:41.421Z,95.60
2019-05-01T00:16:41.414Z,95.51
2019-05-01T00:17:41.405Z,95.12
2019-05-01T00:18:41.399Z,94.93
2019-05-01T00:19:41.389Z,95.32
2019-05-01T00:20:41.380Z,95.12
2019-05-01T00:21:41.374Z,95.03
2019-05-01T00:22:41.366Z,94.93
2019-05-01T00:23:41.357Z,94.84
2019-05-01T00:24:41.350Z,94.93
2019-05-01T00:25:41.343Z,94.84
2019-05-01T00:26:41.335Z,95.32
2019-05-01T00:27:41.331Z,94.84
2019-05-01T00:28:41.323Z,94.74
2019-05-01T00:29:41.315Z,95.03
2019-05-01T00:30:41.304Z,94.84
2019-05-01T00:31:41.302Z,95.22
2019-05-01T00:32:41.295Z,94.84
2019-05-01T00:33:41.281Z,94.93
2019-05-01T00:34:41.273Z,94.84
2019-05-01T00:35:41.264Z,94.93
2019-05-01T00:36:41.257Z,95.03
2019-05-01T00:37:41.251Z,95.32
2019-05-01T00:38:41.246Z,95.32
2019-05-01T00:39:41.239Z,95.27
2019-05-01T00:40:41.230Z,95.08
2019-05-01T00:41:41.219Z,95.46
2019-05-01T00:42:41.211Z,95.46
2019-05-01T00:43:41.205Z,95.84
2019-05-01T00:44:41.203Z,96.03
2019-05-01T00:45:41.194Z,95.94
2019-05-01T00:46:41.187Z,95.94
2019-05-01T00:47:41.175Z,96.03
2019-05-01T00:48:41.168Z,95.75
2019-05-01T00:49:41.162Z,96.03
2019-05-01T00:50:41.156Z,96.12
2019-05-01T00:51:41.145Z,96.60
2019-05-01T00:52:41.137Z,96.22
2019-05-01T00:53:41.124Z,95.65
2019-05-01T00:54:41.119Z,95.84
2019-05-01T00:55:41.110Z,95.84
2019-05-01T00:56:41.103Z,95.75
2019-05-01T00:57:41.103Z,95.75
2019-05-01T00:58:41.097Z,95.65
2019-05-01T00:59:41.090Z,95.94
2019-05-01T01:00:43.134Z,96.03
2019-05-01T01:01:41.067Z,96.12
2019-05-01T01:02:41.059Z,95.46
2019-05-01T01:03:41.054Z,95.94
2019-05-01T01:04:41.048Z,95.65
2019-05-01T01:05:41.036Z,95.65
2019-05-01T01:06:41.027Z,95.84
2019-05-01T01:07:41.018Z,95.84
2019-05-01T01:08:41.013Z,96.12
2019-05-01T01:09:41.005Z,95.84
2019-05-01T01:10:40.997Z,96.03
2019-05-01T01:11:40.993Z,95.56
2019-05-01T01:12:40.985Z,95.75
2019-05-01T01:13:40.973Z,95.94
2019-05-01T01:14:40.967Z,95.75
2019-05-01T01:15:40.957Z,96.03
2019-05-01T01:16:40.947Z,95.46
2019-05-01T01:17:40.943Z,96.03
2019-05-01T01:18:40.937Z,96.60
2019-05-01T01:19:40.928Z,95.94
2019-05-01T01:20:40.917Z,96.03
2019-05-01T01:21:40.916Z,96.70
2019-05-01T01:22:40.906Z,96.60
2019-05-01T01:23:40.900Z,96.60
2019-05-01T01:24:40.895Z,95.94
2019-05-01T01:25:40.880Z,95.84
2019-05-01T01:26:40.872Z,95.94
2019-05-01T01:27:40.864Z,95.56
2019-05-01T01:28:40.856Z,95.65
2019-05-01T01:29:40.852Z,95.84
2019-05-01T01:30:40.843Z,95.56
2019-05-01T01:31:40.834Z,95.60
2019-05-01T01:32:40.825Z,95.89
2019-05-01T01:33:40.813Z,95.60
2019-05-01T01:34:40.806Z,95.84
2019-05-01T01:35:40.803Z,96.46
2019-05-01T01:36:40.794Z,96.70
2019-05-01T01:37:40.782Z,96.08
2019-05-01T01:38:40.774Z,96.36
2019-05-01T01:39:40.773Z,96.17
2019-05-01T01:40:40.762Z,96.26
2019-05-01T01:41:40.761Z,96.26
2019-05-01T01:42:40.749Z,96.36
2019-05-01T01:43:40.741Z,96.46
2019-05-01T01:44:40.733Z,96.46
2019-05-01T01:45:40.722Z,96.17
2019-05-01T01:46:40.712Z,96.17
2019-05-01T01:47:40.702Z,96.36
2019-05-01T01:48:40.698Z,96.17
2019-05-01T01:49:40.689Z,96.46
2019-05-01T01:50:40.683Z,96.74
2019-05-01T01:51:40.670Z,96.84
2019-05-01T01:52:40.662Z,96.74
2019-05-01T01:53:40.657Z,96.26
2019-05-01T01:54:40.650Z,96.36
2019-05-01T01:55:40.643Z,96.74
2019-05-01T01:56:40.636Z,96.94
2019-05-01T01:57:40.623Z,96.84
2019-05-01T01:58:40.615Z,96.46
2019-05-01T01:59:40.607Z,96.94
2019-05-01T02:00:40.601Z,96.94
2019-05-01T02:01:40.594Z,96.46
2019-05-01T02:02:40.587Z,96.65
2019-05-01T02:03:40.578Z,96.26
2019-05-01T02:04:40.569Z,96.84
2019-05-01T02:05:40.556Z,96.94
2019-05-01T02:06:40.549Z,96.84
2019-05-01T02:07:40.543Z,96.74
2019-05-01T02:08:40.536Z,96.17
2019-05-01T02:09:40.522Z,96.74
2019-05-01T02:10:42.942Z,96.36
2019-05-01T02:11:40.509Z,96.26
2019-05-01T02:12:40.501Z,96.26
2019-05-01T02:13:40.497Z,96.74
2019-05-01T02:14:40.496Z,96.65
2019-05-01T02:15:40.482Z,96.74
2019-05-01T02:16:40.470Z,96.84
2019-05-01T02:17:40.458Z,96.17
2019-05-01T02:18:40.448Z,96.84
2019-05-01T02:19:40.452Z,96.36
2019-05-01T02:20:40.438Z,96.46
2019-05-01T02:21:40.431Z,96.26
2019-05-01T02:22:40.424Z,96.84
2019-05-01T02:23:40.411Z,96.55
2019-05-01T02:24:40.411Z,96.65
2019-05-01T02:25:40.397Z,96.65
2019-05-01T02:26:40.390Z,96.84
2019-05-01T02:27:40.379Z,96.65
2019-05-01T02:28:40.371Z,96.84
2019-05-01T02:29:40.357Z,96.36
2019-05-01T02:30:40.350Z,96.74
2019-05-01T02:31:40.343Z,96.46
2019-05-01T02:32:40.336Z,96.65
2019-05-01T02:33:40.330Z,96.74
2019-05-01T02:34:40.323Z,96.65
2019-05-01T02:35:40.326Z,96.74
2019-05-01T02:36:40.309Z,96.84
2019-05-01T02:37:40.297Z,96.94
2019-05-01T02:38:40.291Z,97.03
2019-05-01T02:39:40.285Z,96.65
2019-05-01T02:40:40.277Z,96.46
2019-05-01T02:41:41.616Z,96.36
2019-05-01T02:42:40.254Z,97.13
2019-05-01T02:43:40.244Z,97.03
2019-05-01T02:44:40.237Z,96.84
2019-05-01T02:45:40.232Z,96.51
2019-05-01T02:46:40.223Z,96.74
2019-05-01T02:47:40.215Z,96.70
2019-05-01T02:48:40.209Z,97.41
2019-05-01T02:49:40.239Z,97.27
2019-05-01T02:50:40.190Z,97.08
2019-05-01T02:51:40.182Z,97.46
2019-05-01T02:52:40.175Z,97.55
2019-05-01T02:53:40.170Z,97.36
2019-05-01T02:54:40.168Z,97.36
2019-05-01T02:55:40.150Z,97.08
2019-05-01T02:56:40.145Z,97.27
2019-05-01T02:57:40.140Z,97.27
2019-05-01T02:58:40.131Z,96.41
2019-05-01T02:59:40.121Z,96.70
2019-05-01T03:00:40.113Z,96.89
2019-05-01T03:01:47.108Z,96.79
2019-05-01T03:02:40.092Z,96.84
2019-05-01T03:03:40.085Z,96.36
2019-05-01T03:04:40.085Z,96.55
2019-05-01T03:05:40.085Z,96.46
2019-05-01T03:06:40.074Z,96.17
2019-05-01T03:07:40.060Z,96.46
2019-05-01T03:08:40.052Z,96.36
2019-05-01T03:09:40.045Z,96.46
2019-05-01T03:10:40.035Z,96.17
2019-05-01T03:11:40.038Z,95.51
2019-05-01T03:12:40.024Z,95.70
2019-05-01T03:13:40.011Z,95.89
2019-05-01T03:14:40.006Z,95.98
2019-05-01T03:15:39.993Z,95.98
2019-05-01T03:16:39.987Z,95.70
2019-05-01T03:17:39.981Z,96.41
2019-05-01T03:18:39.975Z,96.31
2019-05-01T03:19:39.978Z,97.36
2019-05-01T03:20:39.965Z,97.46
2019-05-01T03:21:39.950Z,97.74
2019-05-01T03:22:39.942Z,98.60
2019-05-01T03:23:39.932Z,98.03
2019-05-01T03:24:39.924Z,98.22
2019-05-01T03:25:39.919Z,98.22
2019-05-01T03:26:39.913Z,98.22
2019-05-01T03:27:39.899Z,98.22
2019-05-01T03:28:39.892Z,98.22
2019-05-01T03:29:39.888Z,97.74
2019-05-01T03:30:39.881Z,97.65
2019-05-01T03:31:39.874Z,97.46
2019-05-01T03:32:39.868Z,97.27
2019-05-01T03:33:39.854Z,97.65
2019-05-01T03:34:39.847Z,98.03
2019-05-01T03:35:39.839Z,98.03
2019-05-01T03:36:39.837Z,98.41
2019-05-01T03:37:39.827Z,99.17
2019-05-01T03:38:39.826Z,99.36
2019-05-01T03:39:39.814Z,99.65
2019-05-01T03:40:39.801Z,99.46
2019-05-01T03:41:39.813Z,99.99
2019-05-01T03:42:39.779Z,99.99
2019-05-01T03:43:39.791Z,99.99
2019-05-01T03:44:39.768Z,99.99
2019-05-01T03:45:39.753Z,99.99
2019-05-01T03:46:39.747Z,99.99
2019-05-01T03:47:39.743Z,99.99
2019-05-01T03:48:39.737Z,99.99
2019-05-01T03:49:39.730Z,99.99
2019-05-01T03:50:39.721Z,99.99
2019-05-01T03:51:39.714Z,99.99
2019-05-01T03:52:39.705Z,99.99
2019-05-01T03:53:39.694Z,99.99
2019-05-01T03:54:39.685Z,99.99
2019-05-01T03:55:39.674Z,99.99
2019-05-01T03:56:39.667Z,99.99
2019-05-01T03:57:39.664Z,99.99
2019-05-01T03:58:39.660Z,99.99
2019-05-01T03:59:39.643Z,99.99
2019-05-01T04:00:39.639Z,99.99
2019-05-01T04:01:39.630Z,99.99
2019-05-01T04:02:39.624Z,99.99
2019-05-01T04:03:39.624Z,99.99
2019-05-01T04:04:39.611Z,99.99
2019-05-01T04:05:39.598Z,99.99
2019-05-01T04:06:39.589Z,99.99
2019-05-01T04:07:39.581Z,99.99
2019-05-01T04:08:39.573Z,99.99
2019-05-01T04:09:39.570Z,99.99
2019-05-01T04:10:39.562Z,99.99
2019-05-01T04:11:39.551Z,99.99
2019-05-01T04:12:39.543Z,99.99
2019-05-01T04:13:39.530Z,99.99
2019-05-01T04:14:39.691Z,99.99
2019-05-01T04:15:39.526Z,99.99
2019-05-01T04:16:39.512Z,99.99
2019-05-01T04:17:39.500Z,99.99
2019-05-01T04:18:39.495Z,99.99
2019-05-01T04:19:39.486Z,99.99
2019-05-01T04:20:39.482Z,99.99
2019-05-01T04:21:39.474Z,99.99
2019-05-01T04:22:39.466Z,99.99
2019-05-01T04:23:39.455Z,99.99
2019-05-01T04:24:39.447Z,99.99
2019-05-01T04:25:39.439Z,99.99
2019-05-01T04:26:39.427Z,99.99
2019-05-01T04:27:39.420Z,99.99
2019-05-01T04:28:39.416Z,99.99
2019-05-01T04:29:39.409Z,99.99
2019-05-01T04:30:39.406Z,99.99
2019-05-01T04:31:39.395Z,99.99
2019-05-01T04:32:51.716Z,99.99
2019-05-01T04:33:39.383Z,99.99
2019-05-01T04:34:39.369Z,99.99
2019-05-01T04:35:39.365Z,99.99
2019-05-01T04:36:39.356Z,99.99
2019-05-01T04:37:39.338Z,99.99
2019-05-01T04:38:39.333Z,99.99
2019-05-01T04:39:39.324Z,99.99
2019-05-01T04:40:39.315Z,99.99
2019-05-01T04:41:39.311Z,99.99
2019-05-01T04:42:39.304Z,99.99
2019-05-01T04:43:39.301Z,99.99
2019-05-01T04:44:39.299Z,99.99
2019-05-01T04:45:39.279Z,99.99
2019-05-01T04:46:39.273Z,99.99
2019-05-01T04:47:39.267Z,99.99
2019-05-01T04:48:39.260Z,99.99
2019-05-01T04:49:39.248Z,99.99
2019-05-01T04:50:39.241Z,99.99
2019-05-01T04:51:39.232Z,99.99
2019-05-01T04:52:39.223Z,99.99
2019-05-01T04:53:39.218Z,99.99
2019-05-01T04:54:39.210Z,99.99
2019-05-01T04:55:39.204Z,99.99
2019-05-01T04:56:39.196Z,99.99
2019-05-01T04:57:39.183Z,99.99
2019-05-01T04:58:39.176Z,99.99
2019-05-01T04:59:39.172Z,99.99
2019-05-01T05:00:39.164Z,99.99
2019-05-01T05:01:39.159Z,99.99
2019-05-01T05:02:39.151Z,99.99
2019-05-01T05:03:39.142Z,99.99
2019-05-01T05:04:39.132Z,99.99
2019-05-01T05:05:39.127Z,99.99
2019-05-01T05:06:39.121Z,99.99
2019-05-01T05:07:39.113Z,99.99
2019-05-01T05:08:39.105Z,99.99
2019-05-01T05:09:39.091Z,99.99
2019-05-01T05:10:39.084Z,99.99
2019-05-01T05:11:39.080Z,99.99
2019-05-01T05:12:39.069Z,99.99
2019-05-01T05:13:39.067Z,99.99
2019-05-01T05:14:39.059Z,99.99
2019-05-01T05:15:39.054Z,99.79
2019-05-01T05:16:39.048Z,99.99
2019-05-01T05:17:39.037Z,99.99
2019-05-01T05:18:39.030Z,99.89
2019-05-01T05:19:39.024Z,99.99
2019-05-01T05:20:39.019Z,99.99
2019-05-01T05:21:39.005Z,99.37
2019-05-01T05:22:38.998Z,99.99
2019-05-01T05:23:38.987Z,99.65
2019-05-01T05:24:38.981Z,99.99
2019-05-01T05:25:38.978Z,99.99
2019-05-01T05:26:38.971Z,99.75
2019-05-01T05:27:38.965Z,99.55
2019-05-01T05:28:38.958Z,99.99
2019-05-01T05:29:38.945Z,99.55
2019-05-01T05:30:38.939Z,99.84
2019-05-01T05:31:38.929Z,99.84
2019-05-01T05:32:38.923Z,99.75
2019-05-01T05:33:38.921Z,99.46
2019-05-01T05:34:38.912Z,99.46
2019-05-01T05:35:38.902Z,99.99
2019-05-01T05:36:38.894Z,99.99
2019-05-01T05:37:38.891Z,99.99
2019-05-01T05:38:38.883Z,99.84
2019-05-01T05:39:38.878Z,99.84
2019-05-01T05:40:38.873Z,99.84
2019-05-01T05:41:38.859Z,99.37
2019-05-01T05:42:38.854Z,99.46
2019-05-01T05:43:38.844Z,99.46
2019-05-01T05:44:38.840Z,99.94
2019-05-01T05:45:38.833Z,99.75
2019-05-01T05:46:38.827Z,99.84
2019-05-01T05:47:38.820Z,99.27
2019-05-01T05:48:38.810Z,99.94
2019-05-01T05:49:38.800Z,99.99
2019-05-01T05:50:38.792Z,99.98
2019-05-01T05:51:38.790Z,99.98
2019-05-01T05:52:38.783Z,99.98
2019-05-01T05:53:38.770Z,99.99
2019-05-01T05:54:38.766Z,99.99
2019-05-01T05:55:38.760Z,99.98
2019-05-01T05:56:38.753Z,99.99
2019-05-01T05:57:38.749Z,99.99
2019-05-01T05:58:38.741Z,99.99
2019-05-01T05:59:38.734Z,99.99
2019-05-01T06:00:38.728Z,99.99
2019-05-01T06:01:38.714Z,99.99
2019-05-01T06:02:38.709Z,99.99
2019-05-01T06:03:38.699Z,99.99
2019-05-01T06:04:38.690Z,99.94
2019-05-01T06:05:38.689Z,99.99
2019-05-01T06:06:38.679Z,99.99
2019-05-01T06:07:38.669Z,99.99
2019-05-01T06:08:38.707Z,99.99
2019-05-01T06:09:38.657Z,99.99
2019-05-01T06:10:38.651Z,99.37
2019-05-01T06:11:38.647Z,99.99
2019-05-01T06:12:41.776Z,99.99
2019-05-01T06:13:38.627Z,99.99
2019-05-01T06:14:38.621Z,99.99
2019-05-01T06:15:41.177Z,99.99
2019-05-01T06:16:40.350Z,99.99
2019-05-01T06:17:38.610Z,99.99
2019-05-01T06:18:39.303Z,99.99
2019-05-01T06:19:38.587Z,99.99
2019-05-01T06:20:38.582Z,99.65
2019-05-01T06:21:38.568Z,99.99
2019-05-01T06:22:40.822Z,99.99
2019-05-01T06:23:38.561Z,99.99
2019-05-01T06:24:40.590Z,99.99
2019-05-01T06:25:38.545Z,99.99
2019-05-01T06:26:39.478Z,99.55
2019-05-01T06:27:38.528Z,99.75
2019-05-01T06:28:38.522Z,99.46
2019-05-01T06:29:38.517Z,99.94
2019-05-01T06:30:42.115Z,99.37
2019-05-01T06:31:38.503Z,98.99
2019-05-01T06:32:40.118Z,99.13
2019-05-01T06:33:44.332Z,99.13
2019-05-01T06:34:38.478Z,99.32
2019-05-01T06:35:39.422Z,99.13
2019-05-01T06:36:38.466Z,98.94
2019-05-01T06:37:38.463Z,99.13
2019-05-01T06:38:38.456Z,98.56
2019-05-01T06:39:38.445Z,98.36
2019-05-01T06:40:38.438Z,98.65
2019-05-01T06:41:42.426Z,98.56
2019-05-01T06:42:38.427Z,97.94
2019-05-01T06:43:38.419Z,98.60
2019-05-01T06:44:41.786Z,98.79
2019-05-01T06:45:38.400Z,98.84
2019-05-01T06:46:38.398Z,99.75
2019-05-01T06:47:42.963Z,99.55
2019-05-01T06:48:38.381Z,99.75
2019-05-01T06:49:38.377Z,99.99
2019-05-01T06:50:41.466Z,99.99
2019-05-01T06:51:38.365Z,99.99
2019-05-01T06:52:38.365Z,99.84
2019-05-01T06:53:39.868Z,99.27
2019-05-01T06:54:38.342Z,99.55
2019-05-01T06:55:38.338Z,99.75
2019-05-01T06:56:38.330Z,99.94
2019-05-01T06:57:43.263Z,99.99
2019-05-01T06:58:38.313Z,99.55
2019-05-01T06:59:38.304Z,99.99
2019-05-01T07:00:39.127Z,99.99
2019-05-01T07:01:38.293Z,99.99
2019-05-01T07:02:38.287Z,99.99
2019-05-01T07:03:40.834Z,99.99
2019-05-01T07:04:39.588Z,99.94
2019-05-01T07:05:38.260Z,99.99
2019-05-01T07:06:38.255Z,99.99
2019-05-01T07:07:38.250Z,99.84
2019-05-01T07:08:39.686Z,99.65
2019-05-01T07:09:38.240Z,99.84
2019-05-01T07:10:44.171Z,99.70
2019-05-01T07:11:38.301Z,99.04
2019-05-01T07:12:38.216Z,99.80
2019-05-01T07:13:40.040Z,99.80
2019-05-01T07:14:38.253Z,99.41
2019-05-01T07:15:38.197Z,98.94
2019-05-01T07:16:39.294Z,99.08
2019-05-01T07:17:38.178Z,98.79
2019-05-01T07:18:38.174Z,98.89
2019-05-01T07:19:40.273Z,99.08
2019-05-01T07:20:38.158Z,99.27
2019-05-01T07:21:38.156Z,99.99
2019-05-01T07:22:42.126Z,99.99
2019-05-01T07:23:38.145Z,99.99
2019-05-01T07:24:38.137Z,99.60
2019-05-01T07:25:39.410Z,99.89
2019-05-01T07:26:38.120Z,99.84
2019-05-01T07:27:38.130Z,99.99
2019-05-01T07:28:38.111Z,99.65
2019-05-01T07:29:39.823Z,99.99
2019-05-01T07:30:38.093Z,99.99
2019-05-01T07:31:38.084Z,99.99
2019-05-01T07:32:41.101Z,99.99
2019-05-01T07:33:38.073Z,99.99
2019-05-01T07:34:38.065Z,99.55
2019-05-01T07:35:38.137Z,99.89
2019-05-01T07:36:38.056Z,99.60
2019-05-01T07:37:38.042Z,99.80
2019-05-01T07:38:38.698Z,99.13
2019-05-01T07:39:38.028Z,98.94
2019-05-01T07:40:38.020Z,99.32
2019-05-01T07:41:39.000Z,98.65
2019-05-01T07:42:38.011Z,98.85
2019-05-01T07:43:37.999Z,97.99
2019-05-01T07:44:37.993Z,98.46
2019-05-01T07:45:38.893Z,98.22
2019-05-01T07:46:37.986Z,98.22
2019-05-01T07:47:37.982Z,98.42
2019-05-01T07:48:41.461Z,98.32
2019-05-01T07:49:37.961Z,98.32
2019-05-01T07:50:37.956Z,97.75
2019-05-01T07:51:42.385Z,98.03
2019-05-01T07:52:37.948Z,98.42
2019-05-01T07:53:37.967Z,97.17
2019-05-01T07:54:42.256Z,97.17
2019-05-01T07:55:37.926Z,97.37
2019-05-01T07:56:37.922Z,97.22
2019-05-01T07:57:39.435Z,97.51
2019-05-01T07:58:37.909Z,97.32
2019-05-01T07:59:37.900Z,97.70
2019-05-01T08:00:41.493Z,98.36
2019-05-01T08:01:37.881Z,98.18
2019-05-01T08:02:37.876Z,97.99
2019-05-01T08:03:42.419Z,98.27
2019-05-01T08:04:37.867Z,98.18
2019-05-01T08:05:40.923Z,98.27
2019-05-01T08:06:37.856Z,98.18
2019-05-01T08:07:37.853Z,98.36
2019-05-01T08:08:39.702Z,98.08
2019-05-01T08:09:37.837Z,98.27
2019-05-01T08:10:37.827Z,98.27
2019-05-01T08:11:39.143Z,98.56
2019-05-01T08:12:37.812Z,98.18
2019-05-01T08:13:37.810Z,98.08
2019-05-01T08:14:37.803Z,98.36
2019-05-01T08:15:37.793Z,97.80
2019-05-01T08:16:42.355Z,98.36
2019-05-01T08:17:37.787Z,99.32
2019-05-01T08:18:37.777Z,98.70
2019-05-01T08:19:39.427Z,99.08
2019-05-01T08:20:37.768Z,99.80
2019-05-01T08:21:37.757Z,99.60
2019-05-01T08:22:39.052Z,99.60
2019-05-01T08:23:37.743Z,99.70
2019-05-01T08:24:37.736Z,99.32
2019-05-01T08:25:37.734Z,99.13
2019-05-01T08:26:39.676Z,99.32
2019-05-01T08:27:37.721Z,99.22
2019-05-01T08:28:37.711Z,99.60
2019-05-01T08:29:42.069Z,99.80
2019-05-01T08:30:37.714Z,98.99
2019-05-01T08:31:37.693Z,99.32
2019-05-01T08:32:38.924Z,98.75
2019-05-01T08:33:37.674Z,98.56
2019-05-01T08:34:48.520Z,98.18
2019-05-01T08:35:37.746Z,98.27
2019-05-01T08:36:37.663Z,97.99
2019-05-01T08:37:37.656Z,98.27
2019-05-01T08:38:37.649Z,97.85
2019-05-01T08:39:39.819Z,98.80
2019-05-01T08:40:37.637Z,98.32
2019-05-01T08:41:37.846Z,98.03
2019-05-01T08:42:42.184Z,98.13
2019-05-01T08:43:37.612Z,97.85
2019-05-01T08:44:37.604Z,97.66
2019-05-01T08:45:40.602Z,97.75
2019-05-01T08:46:37.600Z,98.13
2019-05-01T08:47:37.585Z,97.66
2019-05-01T08:48:37.795Z,98.03
2019-05-01T08:49:42.257Z,97.85
2019-05-01T08:50:37.573Z,98.61
2019-05-01T08:51:37.569Z,98.42
2019-05-01T08:52:37.563Z,97.66
2019-05-01T08:53:37.553Z,97.75
2019-05-01T08:54:37.545Z,97.89
2019-05-01T08:55:39.818Z,97.71
2019-05-01T08:56:37.536Z,97.32
2019-05-01T08:57:39.534Z,97.51
2019-05-01T08:58:37.525Z,97.71
2019-05-01T08:59:37.516Z,96.66
2019-05-01T09:00:41.034Z,96.66
2019-05-01T09:01:37.499Z,96.84
2019-05-01T09:02:41.618Z,96.94
2019-05-01T09:03:37.494Z,96.46
2019-05-01T09:04:37.489Z,96.66
2019-05-01T09:05:37.477Z,96.84
2019-05-01T09:06:39.345Z,97.32
2019-05-01T09:07:37.559Z,96.61
2019-05-01T09:08:37.462Z,96.75
2019-05-01T09:09:39.654Z,96.94
2019-05-01T09:10:37.455Z,97.22
2019-05-01T09:11:37.501Z,97.03
2019-05-01T09:12:37.443Z,96.94
2019-05-01T09:13:37.437Z,97.51
2019-05-01T09:14:37.426Z,97.51
2019-05-01T09:15:37.418Z,97.51
2019-05-01T09:16:37.415Z,96.84
2019-05-01T09:17:37.410Z,97.13
2019-05-01T09:18:37.406Z,97.32
2019-05-01T09:19:37.393Z,96.56
2019-05-01T09:20:37.395Z,96.66
2019-05-01T09:21:38.266Z,96.56
2019-05-01T09:22:37.381Z,97.03
2019-05-01T09:23:37.377Z,96.66
2019-05-01T09:24:37.401Z,96.80
2019-05-01T09:25:37.362Z,97.18
2019-05-01T09:26:37.357Z,96.89
2019-05-01T09:27:37.353Z,96.13
2019-05-01T09:28:39.812Z,96.13
2019-05-01T09:29:37.343Z,96.13
2019-05-01T09:30:37.340Z,95.84
2019-05-01T09:31:37.332Z,96.13
2019-05-01T09:32:37.325Z,96.17
2019-05-01T09:33:37.316Z,95.70
2019-05-01T09:34:37.311Z,95.22
2019-05-01T09:35:40.489Z,95.22
2019-05-01T09:36:37.304Z,95.22
2019-05-01T09:37:37.300Z,94.74
2019-05-01T09:38:37.288Z,94.65
2019-05-01T09:39:37.286Z,94.93
2019-05-01T09:40:37.281Z,94.55
2019-05-01T09:41:38.679Z,95.03
2019-05-01T09:42:37.272Z,94.65
2019-05-01T09:43:37.268Z,94.17
2019-05-01T09:44:37.263Z,94.36
2019-05-01T09:45:37.251Z,94.07
2019-05-01T09:46:37.247Z,94.55
2019-05-01T09:47:37.247Z,94.65
2019-05-01T09:48:37.240Z,93.41
2019-05-01T09:49:37.238Z,94.51
2019-05-01T09:50:37.232Z,94.41
2019-05-01T09:51:37.224Z,94.51
2019-05-01T09:52:37.220Z,95.27
2019-05-01T09:53:37.221Z,95.08
2019-05-01T09:54:37.213Z,95.46
2019-05-01T09:55:37.208Z,95.56
2019-05-01T09:56:38.411Z,95.22
2019-05-01T09:57:41.399Z,95.12
2019-05-01T09:58:37.185Z,95.12
2019-05-01T09:59:37.181Z,94.84
2019-05-01T10:00:37.175Z,94.84
2019-05-01T10:01:37.175Z,94.65
2019-05-01T10:02:37.547Z,94.46
2019-05-01T10:03:37.169Z,94.46
2019-05-01T10:04:37.162Z,94.65
2019-05-01T10:05:38.109Z,94.65
2019-05-01T10:06:37.148Z,94.84
2019-05-01T10:07:37.148Z,94.55
2019-05-01T10:08:40.067Z,94.46
2019-05-01T10:09:37.135Z,94.60
2019-05-01T10:10:37.227Z,94.79
2019-05-01T10:11:40.735Z,95.07
2019-05-01T10:12:37.118Z,93.65
2019-05-01T10:13:37.117Z,93.84
2019-05-01T10:14:37.503Z,93.40
2019-05-01T10:15:37.112Z,93.74
2019-05-01T10:16:37.105Z,93.74
2019-05-01T10:17:37.095Z,93.36
2019-05-01T10:18:37.091Z,92.88
2019-05-01T10:19:37.090Z,93.26
2019-05-01T10:20:37.087Z,93.07
2019-05-01T10:21:37.081Z,92.97
2019-05-01T10:22:37.607Z,93.74
2019-05-01T10:23:37.069Z,93.36
2019-05-01T10:24:39.238Z,93.36
2019-05-01T10:25:37.063Z,93.02
2019-05-01T10:26:37.059Z,92.74
2019-05-01T10:27:37.429Z,93.12
2019-05-01T10:28:37.050Z,93.40
2019-05-01T10:29:37.040Z,92.83
2019-05-01T10:30:37.614Z,92.54
2019-05-01T10:31:37.030Z,92.16
2019-05-01T10:32:37.028Z,92.25
2019-05-01T10:33:37.028Z,92.07
2019-05-01T10:34:38.703Z,92.25
2019-05-01T10:35:42.947Z,91.78
2019-05-01T10:36:37.017Z,92.45
2019-05-01T10:37:37.011Z,92.45
2019-05-01T10:38:39.876Z,91.88
2019-05-01T10:39:37.004Z,92.25
2019-05-01T10:40:37.005Z,91.78
2019-05-01T10:41:41.097Z,92.25
2019-05-01T10:42:36.987Z,91.73
2019-05-01T10:43:36.980Z,91.63
2019-05-01T10:44:36.978Z,91.73
2019-05-01T10:45:36.978Z,90.96
2019-05-01T10:46:36.973Z,91.44
2019-05-01T10:47:36.973Z,91.53
2019-05-01T10:48:36.969Z,91.78
2019-05-01T10:49:36.959Z,92.02
2019-05-01T10:50:36.955Z,91.63
2019-05-01T10:51:36.949Z,92.11
2019-05-01T10:52:36.946Z,91.92
2019-05-01T10:53:36.945Z,91.53
2019-05-01T10:54:36.942Z,91.25
2019-05-01T10:55:36.942Z,91.25
2019-05-01T10:56:36.929Z,91.44
2019-05-01T10:57:40.194Z,91.06
2019-05-01T10:58:36.926Z,91.44
2019-05-01T10:59:36.925Z,90.63
2019-05-01T11:00:36.921Z,90.39
2019-05-01T11:01:36.914Z,90.48
2019-05-01T11:02:36.913Z,90.77
2019-05-01T11:03:36.907Z,91.06
2019-05-01T11:04:36.904Z,90.96
2019-05-01T11:05:36.903Z,90.87
2019-05-01T11:06:36.901Z,90.58
2019-05-01T11:07:36.895Z,90.58
2019-05-01T11:08:36.891Z,90.39
2019-05-01T11:09:36.883Z,90.96
2019-05-01T11:10:36.877Z,91.35
2019-05-01T11:11:36.879Z,91.16
2019-05-01T11:12:36.876Z,91.25
2019-05-01T11:13:36.868Z,90.87
2019-05-01T11:14:36.864Z,90.67
2019-05-01T11:15:36.863Z,90.58
2019-05-01T11:16:36.860Z,90.39
2019-05-01T11:17:36.859Z,90.25
2019-05-01T11:18:36.856Z,91.11
2019-05-01T11:19:36.852Z,91.59
2019-05-01T11:20:36.849Z,91.68
2019-05-01T11:21:36.843Z,92.07
2019-05-01T11:22:36.842Z,92.40
2019-05-01T11:23:36.832Z,91.35
2019-05-01T11:24:36.827Z,92.02
2019-05-01T11:25:36.829Z,91.83
2019-05-01T11:26:36.827Z,91.53
2019-05-01T11:27:36.816Z,91.44
2019-05-01T11:28:36.814Z,91.35
2019-05-01T11:29:36.813Z,91.53
2019-05-01T11:30:36.812Z,91.44
2019-05-01T11:31:36.810Z,91.35
2019-05-01T11:32:36.806Z,91.25
2019-05-01T11:33:36.797Z,91.20
2019-05-01T11:34:36.793Z,91.20
2019-05-01T11:35:36.790Z,91.11
2019-05-01T11:36:36.787Z,90.34
2019-05-01T11:37:36.786Z,90.72
2019-05-01T11:38:36.782Z,90.82
2019-05-01T11:39:40.796Z,90.63
2019-05-01T11:40:36.775Z,89.86
2019-05-01T11:41:36.763Z,89.95
2019-05-01T11:42:36.760Z,89.95
2019-05-01T11:43:36.771Z,89.95
2019-05-01T11:44:36.759Z,90.15
2019-05-01T11:45:36.751Z,89.81
2019-05-01T11:46:36.745Z,90.01
2019-05-01T11:47:36.746Z,90.58
2019-05-01T11:48:36.743Z,90.87
2019-05-01T11:49:36.742Z,91.35
2019-05-01T11:50:36.739Z,91.63
2019-05-01T11:51:36.737Z,91.73
2019-05-01T11:52:36.728Z,91.35
2019-05-01T11:53:36.720Z,91.35
2019-05-01T11:54:36.716Z,90.63
2019-05-01T11:55:36.718Z,90.72
2019-05-01T11:56:36.714Z,90.91
2019-05-01T11:57:36.711Z,90.72
2019-05-01T11:58:36.708Z,90.05
2019-05-01T11:59:36.720Z,89.67
2019-05-01T12:00:36.736Z,90.05
2019-05-01T12:01:36.697Z,89.81
2019-05-01T12:02:36.699Z,89.38
2019-05-01T12:03:36.689Z,89.58
2019-05-01T12:04:36.687Z,88.62
2019-05-01T12:05:36.679Z,88.71
2019-05-01T12:06:36.674Z,88.76
2019-05-01T12:07:36.671Z,89.04
2019-05-01T12:08:36.675Z,88.66
2019-05-01T12:09:36.670Z,87.90
2019-05-01T12:10:36.668Z,88.04
2019-05-01T12:11:36.667Z,88.48
2019-05-01T12:12:36.664Z,89.62
2019-05-01T12:13:43.614Z,90.39
2019-05-01T12:14:36.699Z,90.67
2019-05-01T12:15:36.651Z,91.25
2019-05-01T12:16:36.649Z,91.35
2019-05-01T12:17:38.896Z,91.39
2019-05-01T12:18:36.705Z,91.01
2019-05-01T12:19:36.684Z,90.72
2019-05-01T12:20:36.630Z,90.29
2019-05-01T12:21:36.631Z,89.14
2019-05-01T12:22:36.627Z,88.76
2019-05-01T12:23:36.625Z,88.42
2019-05-01T12:24:36.621Z,88.99
2019-05-01T12:25:36.613Z,87.94
2019-05-01T12:26:36.612Z,87.74
2019-05-01T12:27:36.612Z,87.46
2019-05-01T12:28:36.608Z,86.31
2019-05-01T12:29:36.611Z,85.16
2019-05-01T12:30:36.605Z,85.64
2019-05-01T12:31:36.599Z,86.12
2019-05-01T12:32:36.599Z,86.21
2019-05-01T12:33:36.597Z,86.88
2019-05-01T12:34:36.595Z,86.21
2019-05-01T12:35:36.594Z,86.21
2019-05-01T12:36:36.822Z,85.54
2019-05-01T12:37:36.583Z,85.58
2019-05-01T12:38:36.591Z,85.58
2019-05-01T12:39:36.574Z,84.39
2019-05-01T12:40:36.571Z,85.25
2019-05-01T12:41:36.573Z,85.98
2019-05-01T12:42:36.568Z,87.08
2019-05-01T12:43:36.570Z,87.08
2019-05-01T12:44:36.565Z,87.46
2019-05-01T12:45:36.559Z,87.27
2019-05-01T12:46:36.556Z,87.37
2019-05-01T12:47:38.103Z,86.69
2019-05-01T12:48:36.557Z,86.25
2019-05-01T12:49:36.549Z,86.07
2019-05-01T12:50:36.546Z,85.68
2019-05-01T12:51:36.541Z,85.30
2019-05-01T12:52:36.540Z,85.58